Tupelo Regional Airport
KTUP : now visible

Airfield :











YOU CAN JOIN US ON...

 
LOGIN :

Register | Disclaimer

   EN    FR    IT 

 









Legend :    VFR   Marginal VFR   IFR   Intensive IFR   Very Intensive IFR
Visi :
Ceiling :
>= 8 km
>= 3000ft
5 to 8 km
1000 to 3000 ft
1500m to 5 km
500 to 1000 ft
800 to 1500m
200 to 500 ft
< 800m
< 200 ft
Symbols :   Thunderstorms  Fog  Heavy snow  Heavy precipitations  Wind > 20 kt






- Airport Elevation : 346 ft
- IATA code : TUP


KTUP - Tupelo Regional

CURRENT METAR :
  • 192053Z 36005KT 10SM BKN022 OVC027 28/22 A3001 RMK AO2 SLP159 60000 T02780222 56017

EXPIRED METARs :
  • 191953Z AUTO 00000KT 10SM BKN019 28/22 A3002 RMK AO2 SLP162 T02780222
  • 191936Z AUTO 00000KT 10SM BKN016 BKN023 BKN049 27/22 A3003 RMK AO2 T02720222
  • 191906Z 00000KT 10SM FEW017 SCT026 OVC055 27/22 A3004 RMK AO2 T02670222 $
  • 191753Z 00000KT 10SM -RA OVC012 25/21 A3006 RMK AO2 RAB49 SLP176 P0000 60000 T02500211 10250 20217 50001 $
  • 191653Z 00000KT 10SM OVC014 24/21 A3007 RMK AO2 SLP178 T02440211 $

TAF KTUP
Valid from the 19 at 18:00 until the 20 at 18:00 UTC


191720Z 1918/2018 04004KT P6SM BKN015
FM192000 VRB03KT P6SM VCSH SCT015 OVC050
TEMPO 1922/1924 P6SM -SHRA
FM200600 13003KT P6SM OVC015
TEMPO 2008/2012 4SM BR OVC004
KZME FIR / North America



MET'MAP, your aeronautical weather chart ! - Copyright ORBIFLY December 2007 - Disclaimer

ORBIFLY MET'MAP TEAM :

Programming & Development : Alexandra Zaïnal
Original concept : Baudouin d'Aumeries
Technical & hardware support : Manuel Goepfert
Assistance : Marc-Olivier Méhu




SOURCES & CREDITS :

   NOAA       Earth
Advisory